sensor_id;sensor_type;location;lat;lon;timestamp;temperature;humidity
9329;DHT22;4703;48.748;19.142;2023-08-06T00:01:50;20.70;99.90
9329;DHT22;4703;48.748;19.142;2023-08-06T00:04:18;20.70;99.90
9329;DHT22;4703;48.748;19.142;2023-08-06T00:06:46;20.70;99.90
9329;DHT22;4703;48.748;19.142;2023-08-06T00:09:13;20.70;99.90
9329;DHT22;4703;48.748;19.142;2023-08-06T00:11:40;20.70;99.90
9329;DHT22;4703;48.748;19.142;2023-08-06T00:14:08;20.70;99.90
9329;DHT22;4703;48.748;19.142;2023-08-06T00:16:35;20.70;99.90
9329;DHT22;4703;48.748;19.142;2023-08-06T00:19:02;20.70;99.90
9329;DHT22;4703;48.748;19.142;2023-08-06T00:21:29;20.60;99.90
9329;DHT22;4703;48.748;19.142;2023-08-06T00:23:56;20.60;99.90
9329;DHT22;4703;48.748;19.142;2023-08-06T00:26:23;20.60;99.90
9329;DHT22;4703;48.748;19.142;2023-08-06T00:28:51;20.60;99.90
9329;DHT22;4703;48.748;19.142;2023-08-06T00:31:18;20.60;99.90
9329;DHT22;4703;48.748;19.142;2023-08-06T00:33:45;20.60;99.90
9329;DHT22;4703;48.748;19.142;2023-08-06T00:36:12;20.60;99.90
9329;DHT22;4703;48.748;19.142;2023-08-06T00:38:39;20.50;99.90
9329;DHT22;4703;48.748;19.142;2023-08-06T00:41:06;20.50;99.90
9329;DHT22;4703;48.748;19.142;2023-08-06T00:43:33;20.50;99.90
9329;DHT22;4703;48.748;19.142;2023-08-06T00:46:00;20.50;99.90
9329;DHT22;4703;48.748;19.142;2023-08-06T00:48:27;20.50;99.90
9329;DHT22;4703;48.748;19.142;2023-08-06T00:50:55;20.50;99.90
9329;DHT22;4703;48.748;19.142;2023-08-06T00:53:22;20.50;99.90
9329;DHT22;4703;48.748;19.142;2023-08-06T00:55:50;20.50;99.90
9329;DHT22;4703;48.748;19.142;2023-08-06T00:58:17;20.50;99.90
9329;DHT22;4703;48.748;19.142;2023-08-06T01:00:45;20.50;99.90
9329;DHT22;4703;48.748;19.142;2023-08-06T01:03:12;20.50;99.90
9329;DHT22;4703;48.748;19.142;2023-08-06T01:05:39;20.50;99.90
9329;DHT22;4703;48.748;19.142;2023-08-06T01:08:30;20.50;99.90
9329;DHT22;4703;48.748;19.142;2023-08-06T01:12:09;20.40;99.90
9329;DHT22;4703;48.748;19.142;2023-08-06T01:14:33;20.40;99.90
9329;DHT22;4703;48.748;19.142;2023-08-06T01:17:07;20.40;99.90
9329;DHT22;4703;48.748;19.142;2023-08-06T01:19:35;20.40;99.90
9329;DHT22;4703;48.748;19.142;2023-08-06T01:22:02;20.40;99.90
9329;DHT22;4703;48.748;19.142;2023-08-06T01:24:29;20.30;99.90
9329;DHT22;4703;48.748;19.142;2023-08-06T01:27:27;20.30;99.90
9329;DHT22;4703;48.748;19.142;2023-08-06T01:30:22;20.40;99.90
9329;DHT22;4703;48.748;19.142;2023-08-06T01:32:58;20.30;99.90
9329;DHT22;4703;48.748;19.142;2023-08-06T01:35:27;20.40;99.90
9329;DHT22;4703;48.748;19.142;2023-08-06T01:37:55;20.40;99.90
9329;DHT22;4703;48.748;19.142;2023-08-06T01:40:23;20.40;99.90
9329;DHT22;4703;48.748;19.142;2023-08-06T01:42:50;20.40;99.90
9329;DHT22;4703;48.748;19.142;2023-08-06T01:45:16;20.40;99.90
9329;DHT22;4703;48.748;19.142;2023-08-06T01:47:43;20.40;99.90
9329;DHT22;4703;48.748;19.142;2023-08-06T01:50:11;20.40;99.90
9329;DHT22;4703;48.748;19.142;2023-08-06T01:52:38;20.30;99.90
9329;DHT22;4703;48.748;19.142;2023-08-06T01:55:05;20.30;99.90
9329;DHT22;4703;48.748;19.142;2023-08-06T01:57:32;20.30;99.90
9329;DHT22;4703;48.748;19.142;2023-08-06T01:59:59;20.30;99.90
9329;DHT22;4703;48.748;19.142;2023-08-06T02:02:26;20.30;99.90
9329;DHT22;4703;48.748;19.142;2023-08-06T02:04:53;20.30;99.90
9329;DHT22;4703;48.748;19.142;2023-08-06T02:07:20;20.40;99.90
9329;DHT22;4703;48.748;19.142;2023-08-06T02:09:47;20.40;99.90
9329;DHT22;4703;48.748;19.142;2023-08-06T02:12:14;20.40;99.90
9329;DHT22;4703;48.748;19.142;2023-08-06T02:14:41;20.40;99.90
9329;DHT22;4703;48.748;19.142;2023-08-06T02:17:08;20.40;99.90
9329;DHT22;4703;48.748;19.142;2023-08-06T02:19:35;20.40;99.90
9329;DHT22;4703;48.748;19.142;2023-08-06T02:22:02;20.40;99.90
9329;DHT22;4703;48.748;19.142;2023-08-06T02:24:29;20.30;99.90
9329;DHT22;4703;48.748;19.142;2023-08-06T02:26:56;20.30;99.90
9329;DHT22;4703;48.748;19.142;2023-08-06T02:29:23;20.40;99.90
9329;DHT22;4703;48.748;19.142;2023-08-06T02:31:50;20.40;99.90
9329;DHT22;4703;48.748;19.142;2023-08-06T02:34:18;20.30;99.90
9329;DHT22;4703;48.748;19.142;2023-08-06T02:36:45;20.30;99.90
9329;DHT22;4703;48.748;19.142;2023-08-06T02:39:12;20.30;99.90
9329;DHT22;4703;48.748;19.142;2023-08-06T02:41:39;20.30;99.90
9329;DHT22;4703;48.748;19.142;2023-08-06T02:44:06;20.30;99.90
9329;DHT22;4703;48.748;19.142;2023-08-06T02:46:33;20.30;99.90
9329;DHT22;4703;48.748;19.142;2023-08-06T02:49:00;20.30;99.90
9329;DHT22;4703;48.748;19.142;2023-08-06T02:51:27;20.30;99.90
9329;DHT22;4703;48.748;19.142;2023-08-06T02:53:54;20.20;99.90
9329;DHT22;4703;48.748;19.142;2023-08-06T02:56:21;20.20;99.90
9329;DHT22;4703;48.748;19.142;2023-08-06T02:58:48;20.20;99.90
9329;DHT22;4703;48.748;19.142;2023-08-06T03:01:15;20.30;99.90
9329;DHT22;4703;48.748;19.142;2023-08-06T03:03:42;20.20;99.90
9329;DHT22;4703;48.748;19.142;2023-08-06T03:06:09;20.20;99.90
9329;DHT22;4703;48.748;19.142;2023-08-06T03:08:36;20.30;99.90
9329;DHT22;4703;48.748;19.142;2023-08-06T03:11:03;20.20;99.90
9329;DHT22;4703;48.748;19.142;2023-08-06T03:13:30;20.20;99.90
9329;DHT22;4703;48.748;19.142;2023-08-06T03:15:59;20.20;99.90
9329;DHT22;4703;48.748;19.142;2023-08-06T03:18:26;20.20;99.90
9329;DHT22;4703;48.748;19.142;2023-08-06T03:20:54;20.20;99.90
9329;DHT22;4703;48.748;19.142;2023-08-06T03:23:21;20.20;99.90
9329;DHT22;4703;48.748;19.142;2023-08-06T03:25:48;20.20;99.90
9329;DHT22;4703;48.748;19.142;2023-08-06T03:28:15;20.20;99.90
9329;DHT22;4703;48.748;19.142;2023-08-06T03:30:43;20.20;99.90
9329;DHT22;4703;48.748;19.142;2023-08-06T03:33:10;20.20;99.90
9329;DHT22;4703;48.748;19.142;2023-08-06T03:35:37;20.20;99.90
9329;DHT22;4703;48.748;19.142;2023-08-06T03:38:04;20.20;99.90
9329;DHT22;4703;48.748;19.142;2023-08-06T03:40:31;20.20;99.90
9329;DHT22;4703;48.748;19.142;2023-08-06T03:42:58;20.20;99.90
9329;DHT22;4703;48.748;19.142;2023-08-06T03:45:25;20.20;99.90
9329;DHT22;4703;48.748;19.142;2023-08-06T03:47:52;20.20;99.90
9329;DHT22;4703;48.748;19.142;2023-08-06T03:50:19;20.20;99.90
9329;DHT22;4703;48.748;19.142;2023-08-06T03:52:46;20.10;99.90
9329;DHT22;4703;48.748;19.142;2023-08-06T03:55:13;20.10;99.90
9329;DHT22;4703;48.748;19.142;2023-08-06T03:57:40;20.10;99.90
9329;DHT22;4703;48.748;19.142;2023-08-06T04:00:07;20.10;99.90
9329;DHT22;4703;48.748;19.142;2023-08-06T04:02:35;20.20;99.90
9329;DHT22;4703;48.748;19.142;2023-08-06T04:05:02;20.10;99.90
9329;DHT22;4703;48.748;19.142;2023-08-06T04:07:29;20.10;99.90
9329;DHT22;4703;48.748;19.142;2023-08-06T04:10:01;20.10;99.90
9329;DHT22;4703;48.748;19.142;2023-08-06T04:12:30;20.10;99.90
9329;DHT22;4703;48.748;19.142;2023-08-06T04:14:58;20.10;99.90
9329;DHT22;4703;48.748;19.142;2023-08-06T04:17:26;20.10;99.90
9329;DHT22;4703;48.748;19.142;2023-08-06T04:19:54;20.10;99.90
9329;DHT22;4703;48.748;19.142;2023-08-06T04:22:21;20.10;99.90
9329;DHT22;4703;48.748;19.142;2023-08-06T04:24:48;20.10;99.90
9329;DHT22;4703;48.748;19.142;2023-08-06T04:27:16;20.10;99.90
9329;DHT22;4703;48.748;19.142;2023-08-06T04:29:44;20.10;99.90
9329;DHT22;4703;48.748;19.142;2023-08-06T04:32:11;20.10;99.90
9329;DHT22;4703;48.748;19.142;2023-08-06T04:34:38;20.10;99.90
9329;DHT22;4703;48.748;19.142;2023-08-06T04:37:05;20.10;99.90
9329;DHT22;4703;48.748;19.142;2023-08-06T04:39:32;20.10;99.90
9329;DHT22;4703;48.748;19.142;2023-08-06T04:41:59;20.10;99.90
9329;DHT22;4703;48.748;19.142;2023-08-06T04:44:26;20.10;99.90
9329;DHT22;4703;48.748;19.142;2023-08-06T04:46:53;20.10;99.90
9329;DHT22;4703;48.748;19.142;2023-08-06T04:49:21;20.10;99.90
9329;DHT22;4703;48.748;19.142;2023-08-06T04:51:48;20.10;99.90
9329;DHT22;4703;48.748;19.142;2023-08-06T04:54:15;20.10;99.90
9329;DHT22;4703;48.748;19.142;2023-08-06T04:56:42;20.10;99.90
9329;DHT22;4703;48.748;19.142;2023-08-06T04:59:09;20.10;99.90
9329;DHT22;4703;48.748;19.142;2023-08-06T05:01:36;20.10;99.90
9329;DHT22;4703;48.748;19.142;2023-08-06T05:04:03;20.10;99.90
9329;DHT22;4703;48.748;19.142;2023-08-06T05:06:30;20.10;99.90
9329;DHT22;4703;48.748;19.142;2023-08-06T05:08:57;20.10;99.90
9329;DHT22;4703;48.748;19.142;2023-08-06T05:11:25;20.10;99.90
9329;DHT22;4703;48.748;19.142;2023-08-06T05:13:52;20.10;99.90
9329;DHT22;4703;48.748;19.142;2023-08-06T05:16:19;20.10;99.90
9329;DHT22;4703;48.748;19.142;2023-08-06T05:18:46;20.10;99.90
9329;DHT22;4703;48.748;19.142;2023-08-06T05:21:13;20.10;99.90
9329;DHT22;4703;48.748;19.142;2023-08-06T05:23:40;20.10;99.90
9329;DHT22;4703;48.748;19.142;2023-08-06T05:26:07;20.10;99.90
9329;DHT22;4703;48.748;19.142;2023-08-06T05:28:35;20.20;99.90
9329;DHT22;4703;48.748;19.142;2023-08-06T05:31:05;20.20;99.90
9329;DHT22;4703;48.748;19.142;2023-08-06T05:33:32;20.20;99.90
9329;DHT22;4703;48.748;19.142;2023-08-06T05:35:59;20.20;99.90
9329;DHT22;4703;48.748;19.142;2023-08-06T05:38:26;20.20;99.90
9329;DHT22;4703;48.748;19.142;2023-08-06T05:40:53;20.20;99.90
9329;DHT22;4703;48.748;19.142;2023-08-06T05:43:20;20.20;99.90
9329;DHT22;4703;48.748;19.142;2023-08-06T05:45:49;20.20;99.90
9329;DHT22;4703;48.748;19.142;2023-08-06T05:48:17;20.20;99.90
9329;DHT22;4703;48.748;19.142;2023-08-06T05:50:44;20.20;99.90
9329;DHT22;4703;48.748;19.142;2023-08-06T05:53:11;20.20;99.90
9329;DHT22;4703;48.748;19.142;2023-08-06T05:55:39;20.20;99.90
9329;DHT22;4703;48.748;19.142;2023-08-06T05:58:06;20.20;99.90
9329;DHT22;4703;48.748;19.142;2023-08-06T06:00:33;20.20;99.90
9329;DHT22;4703;48.748;19.142;2023-08-06T06:03:01;20.20;99.90
9329;DHT22;4703;48.748;19.142;2023-08-06T06:05:29;20.10;99.90
9329;DHT22;4703;48.748;19.142;2023-08-06T06:07:56;20.10;99.90
9329;DHT22;4703;48.748;19.142;2023-08-06T06:10:23;20.00;99.90
9329;DHT22;4703;48.748;19.142;2023-08-06T06:12:50;20.00;99.90
9329;DHT22;4703;48.748;19.142;2023-08-06T06:15:17;19.90;99.90
9329;DHT22;4703;48.748;19.142;2023-08-06T06:17:44;19.80;99.90
9329;DHT22;4703;48.748;19.142;2023-08-06T06:20:11;19.80;99.90
9329;DHT22;4703;48.748;19.142;2023-08-06T06:22:38;19.70;99.90
9329;DHT22;4703;48.748;19.142;2023-08-06T06:25:06;19.70;99.90
9329;DHT22;4703;48.748;19.142;2023-08-06T06:27:33;19.70;99.90
9329;DHT22;4703;48.748;19.142;2023-08-06T06:30:00;19.70;99.90
9329;DHT22;4703;48.748;19.142;2023-08-06T06:32:27;19.60;99.90
9329;DHT22;4703;48.748;19.142;2023-08-06T06:34:54;19.60;99.90
9329;DHT22;4703;48.748;19.142;2023-08-06T06:37:21;19.60;99.90
9329;DHT22;4703;48.748;19.142;2023-08-06T06:39:48;19.60;99.90
9329;DHT22;4703;48.748;19.142;2023-08-06T06:42:16;19.50;99.90
9329;DHT22;4703;48.748;19.142;2023-08-06T06:44:43;19.50;99.90
9329;DHT22;4703;48.748;19.142;2023-08-06T06:47:10;19.50;99.90
9329;DHT22;4703;48.748;19.142;2023-08-06T06:49:37;19.50;99.90
9329;DHT22;4703;48.748;19.142;2023-08-06T06:52:04;19.50;99.90
9329;DHT22;4703;48.748;19.142;2023-08-06T06:54:32;19.50;99.90
9329;DHT22;4703;48.748;19.142;2023-08-06T06:56:59;19.50;99.90
9329;DHT22;4703;48.748;19.142;2023-08-06T06:59:26;19.50;99.90
9329;DHT22;4703;48.748;19.142;2023-08-06T07:01:53;19.50;99.90
9329;DHT22;4703;48.748;19.142;2023-08-06T07:04:20;19.40;99.90
9329;DHT22;4703;48.748;19.142;2023-08-06T07:06:47;19.40;99.90
9329;DHT22;4703;48.748;19.142;2023-08-06T07:09:14;19.30;99.90
9329;DHT22;4703;48.748;19.142;2023-08-06T07:11:41;19.30;99.90
9329;DHT22;4703;48.748;19.142;2023-08-06T07:14:10;19.30;99.90
9329;DHT22;4703;48.748;19.142;2023-08-06T07:16:37;19.30;99.90
9329;DHT22;4703;48.748;19.142;2023-08-06T07:19:04;19.20;99.90
9329;DHT22;4703;48.748;19.142;2023-08-06T07:21:32;19.20;99.90
9329;DHT22;4703;48.748;19.142;2023-08-06T07:23:59;19.10;99.90
9329;DHT22;4703;48.748;19.142;2023-08-06T07:26:26;19.10;99.90
9329;DHT22;4703;48.748;19.142;2023-08-06T07:28:53;19.10;99.90
9329;DHT22;4703;48.748;19.142;2023-08-06T07:31:20;19.10;99.90
9329;DHT22;4703;48.748;19.142;2023-08-06T07:33:47;19.10;99.90
9329;DHT22;4703;48.748;19.142;2023-08-06T07:36:15;19.10;99.90
9329;DHT22;4703;48.748;19.142;2023-08-06T07:38:42;19.10;99.90
9329;DHT22;4703;48.748;19.142;2023-08-06T07:41:09;19.10;99.90
9329;DHT22;4703;48.748;19.142;2023-08-06T07:43:36;19.00;99.90
9329;DHT22;4703;48.748;19.142;2023-08-06T07:46:03;19.20;99.90
9329;DHT22;4703;48.748;19.142;2023-08-06T07:48:30;19.20;99.90
9329;DHT22;4703;48.748;19.142;2023-08-06T07:50:57;19.20;99.90
9329;DHT22;4703;48.748;19.142;2023-08-06T07:53:25;19.10;99.90
9329;DHT22;4703;48.748;19.142;2023-08-06T07:55:58;19.20;99.90
9329;DHT22;4703;48.748;19.142;2023-08-06T07:58:26;19.20;99.90
9329;DHT22;4703;48.748;19.142;2023-08-06T08:00:53;19.20;99.90
9329;DHT22;4703;48.748;19.142;2023-08-06T08:03:20;19.20;99.90
9329;DHT22;4703;48.748;19.142;2023-08-06T08:05:48;19.20;99.90
9329;DHT22;4703;48.748;19.142;2023-08-06T08:08:15;19.30;99.90
9329;DHT22;4703;48.748;19.142;2023-08-06T08:10:42;19.30;99.90
9329;DHT22;4703;48.748;19.142;2023-08-06T08:13:09;19.30;99.90
9329;DHT22;4703;48.748;19.142;2023-08-06T08:15:37;19.30;99.90
9329;DHT22;4703;48.748;19.142;2023-08-06T08:18:03;19.30;99.90
9329;DHT22;4703;48.748;19.142;2023-08-06T08:20:30;19.30;99.90
9329;DHT22;4703;48.748;19.142;2023-08-06T08:23:02;19.20;99.90
9329;DHT22;4703;48.748;19.142;2023-08-06T08:25:29;19.20;99.90
9329;DHT22;4703;48.748;19.142;2023-08-06T08:27:58;19.20;99.90
9329;DHT22;4703;48.748;19.142;2023-08-06T08:30:25;19.30;99.90
9329;DHT22;4703;48.748;19.142;2023-08-06T08:32:53;19.30;99.90
9329;DHT22;4703;48.748;19.142;2023-08-06T08:35:20;19.30;99.90
9329;DHT22;4703;48.748;19.142;2023-08-06T08:37:47;19.30;99.90
9329;DHT22;4703;48.748;19.142;2023-08-06T08:40:15;19.30;99.90
9329;DHT22;4703;48.748;19.142;2023-08-06T08:42:42;19.30;99.90
9329;DHT22;4703;48.748;19.142;2023-08-06T08:45:14;19.30;99.90
9329;DHT22;4703;48.748;19.142;2023-08-06T08:47:42;19.30;99.90
9329;DHT22;4703;48.748;19.142;2023-08-06T08:50:10;19.20;99.90
9329;DHT22;4703;48.748;19.142;2023-08-06T08:52:39;19.20;99.90
9329;DHT22;4703;48.748;19.142;2023-08-06T08:55:07;19.20;99.90
9329;DHT22;4703;48.748;19.142;2023-08-06T08:57:35;19.20;99.90
9329;DHT22;4703;48.748;19.142;2023-08-06T09:00:03;19.20;99.90
9329;DHT22;4703;48.748;19.142;2023-08-06T09:02:32;19.20;99.90
9329;DHT22;4703;48.748;19.142;2023-08-06T09:05:00;19.20;99.90
9329;DHT22;4703;48.748;19.142;2023-08-06T09:07:33;19.30;99.90
9329;DHT22;4703;48.748;19.142;2023-08-06T09:10:03;19.40;99.90
9329;DHT22;4703;48.748;19.142;2023-08-06T09:12:31;19.30;99.90
9329;DHT22;4703;48.748;19.142;2023-08-06T09:14:58;19.30;99.90
9329;DHT22;4703;48.748;19.142;2023-08-06T09:17:25;19.30;99.90
9329;DHT22;4703;48.748;19.142;2023-08-06T09:19:54;19.40;99.90
9329;DHT22;4703;48.748;19.142;2023-08-06T09:22:21;19.30;99.90
9329;DHT22;4703;48.748;19.142;2023-08-06T09:24:49;19.30;99.90
9329;DHT22;4703;48.748;19.142;2023-08-06T09:27:16;19.20;99.90
9329;DHT22;4703;48.748;19.142;2023-08-06T09:29:45;19.20;99.90
9329;DHT22;4703;48.748;19.142;2023-08-06T09:32:13;19.20;99.90
9329;DHT22;4703;48.748;19.142;2023-08-06T09:34:42;19.20;99.90
9329;DHT22;4703;48.748;19.142;2023-08-06T09:37:10;19.20;99.90
9329;DHT22;4703;48.748;19.142;2023-08-06T09:39:40;19.20;99.90
9329;DHT22;4703;48.748;19.142;2023-08-06T09:42:08;19.20;99.90
9329;DHT22;4703;48.748;19.142;2023-08-06T09:44:35;19.20;99.90
9329;DHT22;4703;48.748;19.142;2023-08-06T09:47:03;19.20;99.90
9329;DHT22;4703;48.748;19.142;2023-08-06T09:52:00;19.10;99.90
9329;DHT22;4703;48.748;19.142;2023-08-06T09:54:28;19.10;99.90
9329;DHT22;4703;48.748;19.142;2023-08-06T09:56:57;19.10;99.90
9329;DHT22;4703;48.748;19.142;2023-08-06T09:59:25;19.20;99.90
9329;DHT22;4703;48.748;19.142;2023-08-06T10:01:54;19.20;99.90
9329;DHT22;4703;48.748;19.142;2023-08-06T10:04:24;19.10;99.90
9329;DHT22;4703;48.748;19.142;2023-08-06T10:06:59;19.20;99.90
9329;DHT22;4703;48.748;19.142;2023-08-06T10:09:27;19.20;99.90
9329;DHT22;4703;48.748;19.142;2023-08-06T10:11:54;19.20;99.90
9329;DHT22;4703;48.748;19.142;2023-08-06T10:14:42;19.20;99.90
9329;DHT22;4703;48.748;19.142;2023-08-06T10:17:11;19.20;99.90
9329;DHT22;4703;48.748;19.142;2023-08-06T10:19:38;19.20;99.90
9329;DHT22;4703;48.748;19.142;2023-08-06T10:22:10;19.20;99.90
9329;DHT22;4703;48.748;19.142;2023-08-06T10:24:48;19.20;99.90
9329;DHT22;4703;48.748;19.142;2023-08-06T10:27:35;19.20;99.90
9329;DHT22;4703;48.748;19.142;2023-08-06T10:30:27;19.20;99.90
9329;DHT22;4703;48.748;19.142;2023-08-06T10:33:02;19.20;99.90
9329;DHT22;4703;48.748;19.142;2023-08-06T10:40:41;19.30;99.90
9329;DHT22;4703;48.748;19.142;2023-08-06T10:43:34;19.40;99.90
9329;DHT22;4703;48.748;19.142;2023-08-06T10:46:02;19.30;99.90
9329;DHT22;4703;48.748;19.142;2023-08-06T10:51:11;19.30;99.90
9329;DHT22;4703;48.748;19.142;2023-08-06T10:53:45;19.20;99.90
9329;DHT22;4703;48.748;19.142;2023-08-06T10:58:42;19.10;99.90
9329;DHT22;4703;48.748;19.142;2023-08-06T11:01:10;19.10;99.90
9329;DHT22;4703;48.748;19.142;2023-08-06T11:03:38;19.10;99.90
9329;DHT22;4703;48.748;19.142;2023-08-06T11:06:09;19.10;99.90
9329;DHT22;4703;48.748;19.142;2023-08-06T11:08:38;19.10;99.90
9329;DHT22;4703;48.748;19.142;2023-08-06T11:11:12;19.20;99.90
9329;DHT22;4703;48.748;19.142;2023-08-06T11:13:44;19.20;99.90
9329;DHT22;4703;48.748;19.142;2023-08-06T11:16:16;19.30;99.90
9329;DHT22;4703;48.748;19.142;2023-08-06T11:18:47;19.20;99.90
9329;DHT22;4703;48.748;19.142;2023-08-06T11:21:14;19.30;99.90
9329;DHT22;4703;48.748;19.142;2023-08-06T11:23:46;19.20;99.90
9329;DHT22;4703;48.748;19.142;2023-08-06T11:26:21;19.10;99.90
9329;DHT22;4703;48.748;19.142;2023-08-06T11:28:50;19.00;99.90
9329;DHT22;4703;48.748;19.142;2023-08-06T11:31:21;18.90;99.90
9329;DHT22;4703;48.748;19.142;2023-08-06T11:33:52;18.80;99.90
9329;DHT22;4703;48.748;19.142;2023-08-06T11:36:34;18.70;99.90
9329;DHT22;4703;48.748;19.142;2023-08-06T11:39:04;18.80;99.90
9329;DHT22;4703;48.748;19.142;2023-08-06T11:41:34;18.80;99.90
9329;DHT22;4703;48.748;19.142;2023-08-06T11:44:04;18.90;99.90
9329;DHT22;4703;48.748;19.142;2023-08-06T11:46:52;19.00;99.90
9329;DHT22;4703;48.748;19.142;2023-08-06T11:52:25;19.10;99.90
9329;DHT22;4703;48.748;19.142;2023-08-06T11:55:06;19.10;99.90
9329;DHT22;4703;48.748;19.142;2023-08-06T11:57:38;19.30;99.90
9329;DHT22;4703;48.748;19.142;2023-08-06T12:00:11;19.60;99.90
9329;DHT22;4703;48.748;19.142;2023-08-06T12:02:40;19.90;99.90
9329;DHT22;4703;48.748;19.142;2023-08-06T12:05:12;20.30;99.90
9329;DHT22;4703;48.748;19.142;2023-08-06T12:08:02;20.60;99.90
9329;DHT22;4703;48.748;19.142;2023-08-06T12:10:31;20.70;99.90
9329;DHT22;4703;48.748;19.142;2023-08-06T12:13:01;20.80;99.90
9329;DHT22;4703;48.748;19.142;2023-08-06T12:15:29;20.90;99.90
9329;DHT22;4703;48.748;19.142;2023-08-06T12:17:59;20.90;99.90
9329;DHT22;4703;48.748;19.142;2023-08-06T12:20:26;21.00;99.90
9329;DHT22;4703;48.748;19.142;2023-08-06T12:22:55;21.20;99.90
9329;DHT22;4703;48.748;19.142;2023-08-06T12:25:22;21.50;99.90
9329;DHT22;4703;48.748;19.142;2023-08-06T12:27:50;21.70;99.90
9329;DHT22;4703;48.748;19.142;2023-08-06T12:30:17;21.90;99.90
9329;DHT22;4703;48.748;19.142;2023-08-06T12:32:44;21.80;99.90
9329;DHT22;4703;48.748;19.142;2023-08-06T12:35:11;21.80;99.90
9329;DHT22;4703;48.748;19.142;2023-08-06T12:37:38;21.80;99.90
9329;DHT22;4703;48.748;19.142;2023-08-06T12:40:06;21.70;99.90
9329;DHT22;4703;48.748;19.142;2023-08-06T12:42:53;21.50;99.90
9329;DHT22;4703;48.748;19.142;2023-08-06T12:45:20;21.30;99.90
9329;DHT22;4703;48.748;19.142;2023-08-06T12:47:48;21.20;99.90
9329;DHT22;4703;48.748;19.142;2023-08-06T12:50:16;20.90;99.90
9329;DHT22;4703;48.748;19.142;2023-08-06T12:52:44;20.80;99.90
9329;DHT22;4703;48.748;19.142;2023-08-06T12:55:11;20.80;99.90
9329;DHT22;4703;48.748;19.142;2023-08-06T12:57:38;20.60;99.90
9329;DHT22;4703;48.748;19.142;2023-08-06T13:00:23;20.50;99.90
9329;DHT22;4703;48.748;19.142;2023-08-06T13:02:50;20.30;99.90
9329;DHT22;4703;48.748;19.142;2023-08-06T13:05:18;20.30;99.90
9329;DHT22;4703;48.748;19.142;2023-08-06T13:07:45;20.30;99.90
9329;DHT22;4703;48.748;19.142;2023-08-06T13:10:12;20.30;99.90
9329;DHT22;4703;48.748;19.142;2023-08-06T13:12:39;20.20;99.90
9329;DHT22;4703;48.748;19.142;2023-08-06T13:15:06;20.10;99.90
9329;DHT22;4703;48.748;19.142;2023-08-06T13:17:34;20.00;99.90
9329;DHT22;4703;48.748;19.142;2023-08-06T13:20:01;20.00;99.90
9329;DHT22;4703;48.748;19.142;2023-08-06T13:22:28;20.00;99.90
9329;DHT22;4703;48.748;19.142;2023-08-06T13:24:55;20.00;99.90
9329;DHT22;4703;48.748;19.142;2023-08-06T13:27:22;19.90;99.90
9329;DHT22;4703;48.748;19.142;2023-08-06T13:29:49;19.90;99.90
9329;DHT22;4703;48.748;19.142;2023-08-06T13:32:18;20.00;99.90
9329;DHT22;4703;48.748;19.142;2023-08-06T13:34:45;19.90;99.90
9329;DHT22;4703;48.748;19.142;2023-08-06T13:37:12;20.00;99.90
9329;DHT22;4703;48.748;19.142;2023-08-06T13:39:39;20.00;99.90
9329;DHT22;4703;48.748;19.142;2023-08-06T13:42:06;20.00;99.90
9329;DHT22;4703;48.748;19.142;2023-08-06T13:44:33;20.10;99.90
9329;DHT22;4703;48.748;19.142;2023-08-06T13:47:02;20.10;99.90
9329;DHT22;4703;48.748;19.142;2023-08-06T13:49:29;20.20;99.90
9329;DHT22;4703;48.748;19.142;2023-08-06T13:51:56;20.10;99.90
9329;DHT22;4703;48.748;19.142;2023-08-06T13:54:37;20.20;99.90
9329;DHT22;4703;48.748;19.142;2023-08-06T13:57:04;20.30;99.90
9329;DHT22;4703;48.748;19.142;2023-08-06T13:59:31;20.30;99.90
9329;DHT22;4703;48.748;19.142;2023-08-06T14:01:58;20.30;99.90
9329;DHT22;4703;48.748;19.142;2023-08-06T14:04:26;20.30;99.90
9329;DHT22;4703;48.748;19.142;2023-08-06T14:06:53;20.10;99.90
9329;DHT22;4703;48.748;19.142;2023-08-06T14:09:21;20.10;99.90
9329;DHT22;4703;48.748;19.142;2023-08-06T14:11:48;20.00;99.90
9329;DHT22;4703;48.748;19.142;2023-08-06T14:14:15;19.90;99.90
9329;DHT22;4703;48.748;19.142;2023-08-06T14:16:42;19.90;99.90
9329;DHT22;4703;48.748;19.142;2023-08-06T14:19:09;20.10;99.90
9329;DHT22;4703;48.748;19.142;2023-08-06T14:21:36;20.10;99.90
9329;DHT22;4703;48.748;19.142;2023-08-06T14:24:03;20.10;99.90
9329;DHT22;4703;48.748;19.142;2023-08-06T14:26:30;20.10;99.90
9329;DHT22;4703;48.748;19.142;2023-08-06T14:28:57;20.10;99.90
9329;DHT22;4703;48.748;19.142;2023-08-06T14:31:24;20.00;99.90
9329;DHT22;4703;48.748;19.142;2023-08-06T14:33:51;20.00;99.90
9329;DHT22;4703;48.748;19.142;2023-08-06T14:36:19;19.90;99.90
9329;DHT22;4703;48.748;19.142;2023-08-06T14:38:46;19.90;99.90
9329;DHT22;4703;48.748;19.142;2023-08-06T14:41:26;19.80;99.90
9329;DHT22;4703;48.748;19.142;2023-08-06T14:43:53;19.80;99.90
9329;DHT22;4703;48.748;19.142;2023-08-06T14:46:21;19.70;99.90
9329;DHT22;4703;48.748;19.142;2023-08-06T14:48:48;19.60;99.90
9329;DHT22;4703;48.748;19.142;2023-08-06T14:51:15;19.60;99.90
9329;DHT22;4703;48.748;19.142;2023-08-06T14:53:42;19.50;99.90
9329;DHT22;4703;48.748;19.142;2023-08-06T14:56:09;19.40;99.90
9329;DHT22;4703;48.748;19.142;2023-08-06T14:58:36;19.30;99.90
9329;DHT22;4703;48.748;19.142;2023-08-06T15:01:03;19.20;99.90
9329;DHT22;4703;48.748;19.142;2023-08-06T15:03:30;19.00;99.90
9329;DHT22;4703;48.748;19.142;2023-08-06T15:05:58;19.00;99.90
9329;DHT22;4703;48.748;19.142;2023-08-06T15:08:25;18.90;99.90
9329;DHT22;4703;48.748;19.142;2023-08-06T15:10:53;18.90;99.90
9329;DHT22;4703;48.748;19.142;2023-08-06T15:13:20;18.90;99.90
9329;DHT22;4703;48.748;19.142;2023-08-06T15:15:51;18.90;99.90
9329;DHT22;4703;48.748;19.142;2023-08-06T15:18:18;18.90;99.90
9329;DHT22;4703;48.748;19.142;2023-08-06T15:20:45;18.90;99.90
9329;DHT22;4703;48.748;19.142;2023-08-06T15:23:13;18.90;99.90
9329;DHT22;4703;48.748;19.142;2023-08-06T15:25:40;18.90;99.90
9329;DHT22;4703;48.748;19.142;2023-08-06T15:28:07;18.90;99.90
9329;DHT22;4703;48.748;19.142;2023-08-06T15:30:34;18.90;99.90
9329;DHT22;4703;48.748;19.142;2023-08-06T15:33:01;18.90;99.90
9329;DHT22;4703;48.748;19.142;2023-08-06T15:35:29;18.90;99.90
9329;DHT22;4703;48.748;19.142;2023-08-06T15:37:56;18.80;99.90
9329;DHT22;4703;48.748;19.142;2023-08-06T15:40:23;18.90;99.90
9329;DHT22;4703;48.748;19.142;2023-08-06T15:42:50;18.80;99.90
9329;DHT22;4703;48.748;19.142;2023-08-06T15:45:17;18.70;99.90
9329;DHT22;4703;48.748;19.142;2023-08-06T15:47:44;18.70;99.90
9329;DHT22;4703;48.748;19.142;2023-08-06T15:50:11;18.70;99.90
9329;DHT22;4703;48.748;19.142;2023-08-06T15:52:38;18.60;99.90
9329;DHT22;4703;48.748;19.142;2023-08-06T15:55:05;18.70;99.90
9329;DHT22;4703;48.748;19.142;2023-08-06T15:57:34;18.60;99.90
9329;DHT22;4703;48.748;19.142;2023-08-06T16:00:02;18.60;99.90
9329;DHT22;4703;48.748;19.142;2023-08-06T16:02:30;18.50;99.90
9329;DHT22;4703;48.748;19.142;2023-08-06T16:04:58;18.50;99.90
9329;DHT22;4703;48.748;19.142;2023-08-06T16:07:26;18.60;99.90
9329;DHT22;4703;48.748;19.142;2023-08-06T16:09:54;18.50;99.90